Metars

EGJB - Guernsey Airport
Distance from station: SW 8km

Current
Partly Cloudy
Partly Cloudy
 Wind from NNE
Wind: NNE 3 mph , 6 km/h
Temperature: 10°C
Dew Point: 8°C
Humidity: 88%
Barometer: 1024 hPa
Clouds: Partly Cloudy
Visibility: 6 miles , 10 km
Cloud details: Few Clouds 427 m
Partly Cloudy 914 m
2017/11/19 09:50 EGJB 190950Z 02003KT 9999 FEW014 SCT030 10/08 Q1024
EGJA - Alderney Airport
Distance from station: NE 37km

Current
Few Clouds
Few Clouds
 Wind from varies
Wind: varies 3 mph , 6 km/h
Clouds: Few Clouds
Visibility: 6 miles , 10 km
Cloud details: Few Clouds 732 m
2017/11/19 09:50 EGJA 190950Z VRB03KT 9999 FEW024 10/// Q1024
EGJJ - Jersey Airport
Distance from station: SE 37km

Current
Few Clouds
Few Clouds
 Wind from E
Wind: E 6 mph , 9 km/h
Temperature: 10°C
Wind Chill: 9°C
Dew Point: 9°C
Humidity: 94%
Barometer: 1024 hPa
Clouds: Few Clouds
Visibility: 6 miles , 10 km
Cloud details: Few Clouds 579 m
2017/11/19 09:50 EGJJ 190950Z 09005KT 9999 FEW019 10/09 Q1024